Time;durP1;ratioP1;P1;durP2;ratioP2;P2;SDS_P1;SDS_P2;PMS_P1;PMS_P2;Temp;Humidity;BMP_temperature;BMP_pressure;BME280_temperature;BME280_humidity;BME280_pressure;Samples;Min_cycle;Max_cycle;Signal;HPM_P1;HPM_P2
2021/01/10 00:01:54;;;;;;;6.18;4.63;;;7.60;79.10;;;;;;5113737;28;20381;-51
2021/01/10 00:04:20;;;;;;;8.43;5.13;;;7.60;79.10;;;;;;5114301;28;20069;-51
2021/01/10 00:06:46;;;;;;;5.22;4.55;;;7.60;79.20;;;;;;5113473;28;20035;-49
2021/01/10 00:09:13;;;;;;;5.82;4.75;;;7.60;79.10;;;;;;5113742;28;20051;-50
2021/01/10 00:11:44;;;;;;;5.95;5.25;;;7.70;79.20;;;;;;5113849;28;20051;-52
2021/01/10 00:14:10;;;;;;;6.55;4.50;;;7.60;79.10;;;;;;5111375;28;20122;-50
2021/01/10 00:16:39;;;;;;;5.40;4.90;;;7.60;79.10;;;;;;5114495;28;20132;-49
2021/01/10 00:19:06;;;;;;;7.60;4.80;;;7.60;79.20;;;;;;5113927;28;20380;-49
2021/01/10 00:21:33;;;;;;;5.00;4.35;;;7.60;79.10;;;;;;5114527;28;20119;-48
2021/01/10 00:23:59;;;;;;;7.30;4.78;;;7.60;79.20;;;;;;5113789;28;20052;-48
2021/01/10 00:26:31;;;;;;;6.35;5.22;;;7.60;79.80;;;;;;5113756;28;20066;-48
2021/01/10 00:28:57;;;;;;;5.68;4.53;;;7.60;79.20;;;;;;5113888;28;20483;-51
2021/01/10 00:31:27;;;;;;;5.60;4.60;;;7.60;79.20;;;;;;5112436;28;20055;-48
2021/01/10 00:33:54;;;;;;;5.72;4.10;;;7.60;79.20;;;;;;5113327;28;20109;-49
2021/01/10 00:36:19;;;;;;;4.95;4.15;;;7.60;79.20;;;;;;5113972;28;20487;-48
2021/01/10 00:38:45;;;;;;;5.65;4.22;;;7.60;79.20;;;;;;5113486;28;20051;-50
2021/01/10 00:41:11;;;;;;;6.30;4.80;;;7.60;79.20;;;;;;5113500;28;20075;-47
2021/01/10 00:43:36;;;;;;;5.55;4.20;;;7.60;79.20;;;;;;5113443;28;20043;-49
2021/01/10 00:46:02;;;;;;;4.70;4.20;;;7.60;79.20;;;;;;5113613;28;20082;-48
2021/01/10 00:48:28;;;;;;;5.82;4.40;;;7.60;79.20;;;;;;5113880;28;20051;-48
2021/01/10 00:50:54;;;;;;;5.53;4.28;;;7.60;79.20;;;;;;5113568;28;20051;-48
2021/01/10 00:53:20;;;;;;;6.35;4.53;;;7.60;79.20;;;;;;5113560;28;20043;-49
2021/01/10 00:55:46;;;;;;;5.05;4.10;;;7.60;79.20;;;;;;5113190;28;20101;-48
2021/01/10 00:58:11;;;;;;;5.53;4.35;;;7.60;79.20;;;;;;5112810;28;20051;-45
2021/01/10 01:00:39;;;;;;;5.22;4.30;;;7.60;79.20;;;;;;5113839;28;20082;-48
2021/01/10 01:03:05;;;;;;;6.68;4.78;;;7.60;79.20;;;;;;5113366;28;20043;-47
2021/01/10 01:05:31;;;;;;;4.63;3.88;;;7.60;79.20;;;;;;5113173;28;20069;-50
2021/01/10 01:07:56;;;;;;;6.05;4.20;;;7.60;79.20;;;;;;5113272;28;20074;-48
2021/01/10 01:10:22;;;;;;;5.78;4.35;;;7.60;79.20;;;;;;5113456;28;20105;-48
2021/01/10 01:12:48;;;;;;;4.97;4.47;;;7.60;79.20;;;;;;5111645;28;20092;-47
2021/01/10 01:15:14;;;;;;;6.22;4.38;;;7.60;79.20;;;;;;5113331;28;20480;-48
2021/01/10 01:17:39;;;;;;;5.78;4.95;;;7.60;79.20;;;;;;5113063;28;20051;-51
2021/01/10 01:20:06;;;;;;;7.05;4.63;;;7.60;79.30;;;;;;5113226;28;20051;-50
2021/01/10 01:22:31;;;;;;;6.53;4.75;;;7.60;79.20;;;;;;5113061;28;20160;-50
2021/01/10 01:24:58;;;;;;;5.47;4.25;;;7.60;79.20;;;;;;5113446;28;20043;-49
2021/01/10 01:27:24;;;;;;;4.82;4.05;;;7.60;79.20;;;;;;5112712;28;20040;-50
2021/01/10 01:29:50;;;;;;;4.78;3.90;;;7.60;79.20;;;;;;5112792;28;20050;-50
2021/01/10 01:32:15;;;;;;;5.00;4.32;;;7.60;79.20;;;;;;5112670;28;20046;-52
2021/01/10 01:34:41;;;;;;;5.05;3.80;;;7.60;79.20;;;;;;5113055;28;20071;-50
2021/01/10 01:37:07;;;;;;;5.93;4.72;;;7.60;79.20;;;;;;5112605;28;20400;-50
2021/01/10 01:39:32;;;;;;;4.82;3.80;;;7.60;79.20;;;;;;5113105;28;20055;-49
2021/01/10 01:41:58;;;;;;;4.82;4.20;;;7.60;79.20;;;;;;5112437;28;20510;-51
2021/01/10 01:44:24;;;;;;;5.65;3.97;;;7.60;79.30;;;;;;5112853;28;20759;-48
2021/01/10 01:46:51;;;;;;;5.05;4.10;;;7.60;79.20;;;;;;5112604;28;20043;-51
2021/01/10 01:49:17;;;;;;;5.07;4.50;;;7.60;79.20;;;;;;5112723;28;20044;-47
2021/01/10 01:51:45;;;;;;;4.82;3.75;;;7.60;79.20;;;;;;5113088;28;20044;-48
2021/01/10 01:54:12;;;;;;;5.80;4.15;;;7.60;79.20;;;;;;5112893;28;20055;-50
2021/01/10 01:56:38;;;;;;;4.78;3.60;;;7.60;79.20;;;;;;5112998;28;20206;-49
2021/01/10 01:59:13;;;;;;;6.70;3.92;;;7.60;79.30;;;;;;5111952;28;20472;-50
2021/01/10 02:01:38;;;;;;;4.95;3.83;;;7.60;79.20;;;;;;5112686;28;20059;-52
2021/01/10 02:04:08;;;;;;;5.18;3.78;;;7.60;79.30;;;;;;5112795;28;20559;-51
2021/01/10 02:06:47;;;;;;;7.25;3.72;;;7.60;79.20;;;;;;5112702;28;20046;-50
2021/01/10 02:09:15;;;;;;;5.57;4.30;;;7.60;79.20;;;;;;5112378;28;20045;-50
2021/01/10 02:11:44;;;;;;;6.45;4.40;;;7.60;79.30;;;;;;5112846;28;20051;-50
2021/01/10 02:14:14;;;;;;;4.80;3.45;;;7.50;79.20;;;;;;5112550;28;20048;-50
2021/01/10 02:16:40;;;;;;;4.70;3.80;;;7.60;79.30;;;;;;5112114;28;20093;-50
2021/01/10 02:19:14;;;;;;;4.68;3.60;;;7.50;79.20;;;;;;5112188;28;20433;-47
2021/01/10 02:21:43;;;;;;;4.28;3.53;;;7.50;79.20;;;;;;5112233;28;20135;-48
2021/01/10 02:24:10;;;;;;;5.50;4.07;;;7.50;79.20;;;;;;5113177;28;20123;-48
2021/01/10 02:26:36;;;;;;;5.40;3.92;;;7.50;79.20;;;;;;5116471;28;20096;-48
2021/01/10 02:29:03;;;;;;;4.78;3.67;;;7.50;79.20;;;;;;5116200;28;20043;-50
2021/01/10 02:31:31;;;;;;;5.07;3.95;;;7.50;79.20;;;;;;5115842;28;20058;-48
2021/01/10 02:33:58;;;;;;;7.05;3.83;;;7.60;79.30;;;;;;5116115;28;20419;-49
2021/01/10 02:36:35;;;;;;;5.80;3.75;;;7.50;79.20;;;;;;5116441;28;20052;-50
2021/01/10 02:39:28;;;;;;;5.10;3.72;;;7.50;79.20;;;;;;5096052;28;20106;-47
2021/01/10 02:42:13;;;;;;;5.30;3.75;;;7.50;79.20;;;;;;5106637;28;20090;-51
2021/01/10 02:44:47;;;;;;;5.45;3.63;;;7.50;79.20;;;;;;5115643;28;20052;-51
2021/01/10 02:47:12;;;;;;;4.10;3.50;;;7.50;79.20;;;;;;5115468;28;20051;-50
2021/01/10 02:49:38;;;;;;;4.32;3.53;;;7.50;79.20;;;;;;5115935;28;20054;-52
2021/01/10 02:52:05;;;;;;;5.43;3.63;;;7.50;79.20;;;;;;5116103;28;20062;-51
2021/01/10 02:54:30;;;;;;;3.70;3.30;;;7.50;79.20;;;;;;5116225;27;20051;-51
2021/01/10 02:57:05;;;;;;;4.15;3.45;;;7.50;79.20;;;;;;5115798;28;20081;-53
2021/01/10 02:59:36;;;;;;;6.10;3.58;;;7.50;79.30;;;;;;5116124;28;20497;-50
2021/01/10 03:02:04;;;;;;;4.18;3.35;;;7.50;79.20;;;;;;5115279;28;20039;-52
2021/01/10 03:04:30;;;;;;;5.88;3.85;;;7.50;79.30;;;;;;5115895;28;20055;-48
2021/01/10 03:06:58;;;;;;;5.03;3.55;;;7.50;79.20;;;;;;5115472;28;20050;-48
2021/01/10 03:09:25;;;;;;;4.68;3.33;;;7.50;79.20;;;;;;5116021;28;20122;-51
2021/01/10 03:11:54;;;;;;;5.43;3.22;;;7.50;79.30;;;;;;5115542;28;20051;-47
2021/01/10 03:14:21;;;;;;;4.95;3.63;;;7.50;79.30;;;;;;5115339;28;20056;-45
2021/01/10 03:16:51;;;;;;;4.15;3.15;;;7.50;79.30;;;;;;5115364;28;20059;-48
2021/01/10 03:19:17;;;;;;;4.20;3.05;;;7.50;79.30;;;;;;5115295;28;20082;-47
2021/01/10 03:21:42;;;;;;;4.57;3.33;;;7.50;79.30;;;;;;5115730;28;20098;-51
2021/01/10 03:24:09;;;;;;;3.95;3.25;;;7.50;79.20;;;;;;5115324;28;20051;-49
2021/01/10 03:26:35;;;;;;;3.85;3.45;;;7.50;79.30;;;;;;5115520;28;20559;-50
2021/01/10 03:29:01;;;;;;;3.78;3.35;;;7.50;79.30;;;;;;5115198;28;20126;-48
2021/01/10 03:31:26;;;;;;;3.95;3.22;;;7.50;80.10;;;;;;5115032;28;20059;-48
2021/01/10 03:33:52;;;;;;;4.82;3.30;;;7.50;79.30;;;;;;5114928;28;20036;-47
2021/01/10 03:36:18;;;;;;;4.03;3.13;;;7.50;79.30;;;;;;5114592;28;20089;-48
2021/01/10 03:38:44;;;;;;;4.60;3.65;;;7.50;79.30;;;;;;5115316;28;20086;-49
2021/01/10 03:41:10;;;;;;;5.05;3.17;;;7.50;79.30;;;;;;5115161;28;20075;-47
2021/01/10 03:43:37;;;;;;;4.05;3.65;;;7.50;79.30;;;;;;5115230;28;20039;-50
2021/01/10 03:46:03;;;;;;;3.15;2.85;;;7.50;79.30;;;;;;5114841;28;20442;-48
2021/01/10 03:48:31;;;;;;;3.63;3.08;;;7.50;79.30;;;;;;5115149;28;20043;-48
2021/01/10 03:50:57;;;;;;;5.05;3.25;;;7.50;79.30;;;;;;5114832;28;20058;-48
2021/01/10 03:53:23;;;;;;;3.75;2.80;;;7.50;79.30;;;;;;5114424;28;20403;-50
2021/01/10 03:55:49;;;;;;;3.47;2.65;;;7.60;79.40;;;;;;5114618;28;20048;-49
2021/01/10 03:58:15;;;;;;;3.17;2.75;;;7.50;79.30;;;;;;5114729;28;20051;-47
2021/01/10 04:00:40;;;;;;;3.22;2.80;;;7.50;79.30;;;;;;5114838;28;20059;-48
2021/01/10 04:03:06;;;;;;;3.67;2.83;;;7.50;79.30;;;;;;5114375;28;20036;-49
2021/01/10 04:05:31;;;;;;;3.55;3.20;;;7.50;79.30;;;;;;5114024;28;20054;-47
2021/01/10 04:07:57;;;;;;;3.78;2.55;;;7.50;79.30;;;;;;5114532;28;20638;-47
2021/01/10 04:10:23;;;;;;;3.45;3.00;;;7.50;79.30;;;;;;5114805;28;20131;-48
2021/01/10 04:12:48;;;;;;;4.45;3.03;;;7.50;79.30;;;;;;5114242;28;20043;-49
2021/01/10 04:15:14;;;;;;;3.63;2.95;;;7.50;79.30;;;;;;5114399;28;20043;-50
2021/01/10 04:17:40;;;;;;;4.13;2.90;;;7.50;79.30;;;;;;5113802;28;20059;-48
2021/01/10 04:20:06;;;;;;;3.65;2.75;;;7.50;79.30;;;;;;5114238;28;20047;-49
2021/01/10 04:22:31;;;;;;;3.92;2.90;;;7.50;79.30;;;;;;5114218;28;20048;-53
2021/01/10 04:24:57;;;;;;;3.80;2.72;;;7.50;79.30;;;;;;5114469;28;20126;-49
2021/01/10 04:27:23;;;;;;;3.10;2.80;;;7.50;79.30;;;;;;5113735;28;20120;-49
2021/01/10 04:29:48;;;;;;;3.53;2.90;;;7.50;79.30;;;;;;5114351;28;20112;-47
2021/01/10 04:32:14;;;;;;;4.97;2.72;;;7.50;79.30;;;;;;5114148;28;20039;-51
2021/01/10 04:34:40;;;;;;;2.72;2.47;;;7.50;79.30;;;;;;5113600;28;20055;-51
2021/01/10 04:37:06;;;;;;;3.50;2.80;;;7.50;79.30;;;;;;5113438;28;20487;-51
2021/01/10 04:39:31;;;;;;;3.35;2.75;;;7.50;79.30;;;;;;5113584;28;20051;-47
2021/01/10 04:41:58;;;;;;;3.30;2.63;;;7.50;79.30;;;;;;5114171;28;20407;-48
2021/01/10 04:44:24;;;;;;;3.00;2.63;;;7.50;79.30;;;;;;5113625;28;20140;-50
2021/01/10 04:46:51;;;;;;;3.78;2.75;;;7.50;79.30;;;;;;5113216;28;20055;-50
2021/01/10 04:49:21;;;;;;;4.25;2.75;;;7.50;79.30;;;;;;5113314;28;20046;-47
2021/01/10 04:51:48;;;;;;;3.65;3.08;;;7.50;79.30;;;;;;5114043;28;20040;-47
2021/01/10 04:54:16;;;;;;;4.50;2.72;;;7.50;79.30;;;;;;5113374;27;20392;-48
2021/01/10 04:56:43;;;;;;;3.30;2.67;;;7.50;79.30;;;;;;5113868;28;20151;-48
2021/01/10 04:59:10;;;;;;;4.75;2.83;;;7.50;79.30;;;;;;5113522;28;20048;-48
2021/01/10 05:01:48;;;;;;;3.80;2.75;;;7.50;79.30;;;;;;5113647;28;20505;-47
2021/01/10 05:04:14;;;;;;;2.72;2.38;;;7.50;79.30;;;;;;5113243;28;20047;-47
2021/01/10 05:06:40;;;;;;;4.13;2.80;;;7.50;79.30;;;;;;5113458;28;20478;-47
2021/01/10 05:09:07;;;;;;;3.53;2.45;;;7.50;79.30;;;;;;5112943;28;20048;-48
2021/01/10 05:11:35;;;;;;;3.35;2.47;;;7.50;79.30;;;;;;5113213;28;20054;-49
2021/01/10 05:14:02;;;;;;;3.38;2.90;;;7.50;79.30;;;;;;5112986;28;20047;-48
2021/01/10 05:16:35;;;;;;;3.40;2.58;;;7.50;79.30;;;;;;5113048;28;20075;-48
2021/01/10 05:19:02;;;;;;;2.83;2.25;;;7.50;79.30;;;;;;5113583;28;20039;-48
2021/01/10 05:21:29;;;;;;;5.05;2.80;;;7.50;79.30;;;;;;5112859;28;20055;-47
2021/01/10 05:23:56;;;;;;;3.35;2.75;;;7.50;79.30;;;;;;5113186;28;20481;-50
2021/01/10 05:26:22;;;;;;;3.60;2.53;;;7.40;79.30;;;;;;5113474;28;20047;-49
2021/01/10 05:28:51;;;;;;;3.35;2.50;;;7.50;79.30;;;;;;5113049;28;20044;-48
2021/01/10 05:31:40;;;;;;;5.25;2.42;;;7.50;79.30;;;;;;5112625;28;20059;-47
2021/01/10 05:34:07;;;;;;;4.03;2.58;;;7.50;79.30;;;;;;5113157;28;20130;-49
2021/01/10 05:36:35;;;;;;;3.25;2.42;;;7.40;79.30;;;;;;5112893;28;20062;-48
2021/01/10 05:39:28;;;;;;;2.22;2.03;;;7.40;79.30;;;;;;5112703;28;20548;-47
2021/01/10 05:42:02;;;;;;;3.25;2.40;;;7.40;79.20;;;;;;5039804;28;20052;-47
2021/01/10 05:44:49;;;;;;;5.00;2.58;;;7.40;79.20;;;;;;5033844;28;20049;-50
2021/01/10 05:47:16;;;;;;;3.67;2.30;;;7.50;79.30;;;;;;5029963;28;20049;-52
2021/01/10 05:49:48;;;;;;;2.88;2.58;;;7.40;79.20;;;;;;5048268;28;20081;-51
2021/01/10 05:52:15;;;;;;;3.38;2.53;;;7.40;79.20;;;;;;5048260;28;20052;-51
2021/01/10 05:54:46;;;;;;;3.10;2.17;;;7.50;79.30;;;;;;5050368;28;20064;-50
2021/01/10 05:57:24;;;;;;;2.88;2.10;;;7.40;79.30;;;;;;5049882;28;20057;-51
2021/01/10 05:59:54;;;;;;;3.13;2.70;;;7.40;79.20;;;;;;5033576;28;20084;-51
2021/01/10 06:02:37;;;;;;;3.17;2.50;;;7.50;79.30;;;;;;5037879;28;20107;-49
2021/01/10 06:05:14;;;;;;;3.45;2.70;;;7.40;79.30;;;;;;5053770;28;20053;-48
2021/01/10 06:07:41;;;;;;;3.15;2.40;;;7.40;79.30;;;;;;5034401;28;20461;-51
2021/01/10 06:10:07;;;;;;;3.17;2.38;;;7.40;79.30;;;;;;5053455;28;20605;-49
2021/01/10 06:12:33;;;;;;;3.42;2.50;;;7.40;79.30;;;;;;5052187;28;20516;-49
2021/01/10 06:15:17;;;;;;;3.67;2.83;;;7.40;79.30;;;;;;5053968;28;20057;-48
2021/01/10 06:17:43;;;;;;;5.10;2.65;;;7.40;79.70;;;;;;5052729;28;20437;-49
2021/01/10 06:20:29;;;;;;;2.80;2.40;;;7.40;79.30;;;;;;5096400;28;20523;-46
2021/01/10 06:22:56;;;;;;;;;;;7.40;79.30;;;;;;5101468;28;20051;-50
2021/01/10 06:25:24;;;;;;;3.00;2.35;;;7.40;79.30;;;;;;5116459;28;19951;-48
2021/01/10 06:28:14;;;;;;;2.55;2.00;;;7.40;79.30;;;;;;5115988;28;20039;-49
2021/01/10 06:30:59;;;;;;;4.68;2.50;;;7.40;79.20;;;;;;5116823;28;20055;-47
2021/01/10 06:33:32;;;;;;;3.80;2.55;;;7.40;79.30;;;;;;5116368;28;20098;-44
2021/01/10 06:36:03;;;;;;;2.13;1.92;;;7.40;79.30;;;;;;5115295;28;20044;-48
2021/01/10 06:38:33;;;;;;;3.53;2.33;;;7.40;80.00;;;;;;5115676;27;20050;-47
2021/01/10 06:41:20;;;;;;;3.35;2.15;;;7.40;79.30;;;;;;5115980;28;20085;-48
2021/01/10 06:43:54;;;;;;;4.40;2.20;;;7.40;79.30;;;;;;5116254;28;20053;-47
2021/01/10 06:46:21;;;;;;;4.15;2.38;;;7.40;79.30;;;;;;5115834;28;20047;-49
2021/01/10 06:48:47;;;;;;;3.15;2.47;;;7.40;79.30;;;;;;5115709;28;20050;-48
2021/01/10 06:51:15;;;;;;;3.03;2.35;;;7.40;79.40;;;;;;5116412;28;20124;-46
2021/01/10 06:53:41;;;;;;;5.45;2.08;;;7.40;79.30;;;;;;5115525;28;20166;-52
2021/01/10 06:56:08;;;;;;;3.53;2.20;;;7.40;79.30;;;;;;5116051;28;20075;-50
2021/01/10 06:58:34;;;;;;;3.20;2.40;;;7.40;79.30;;;;;;5115263;28;20048;-47
2021/01/10 07:00:59;;;;;;;2.33;1.77;;;7.40;79.30;;;;;;5116073;28;20093;-50
2021/01/10 07:03:28;;;;;;;4.00;2.20;;;7.40;79.30;;;;;;5115547;28;20434;-50
2021/01/10 07:06:08;;;;;;;4.88;2.72;;;7.40;79.30;;;;;;5115638;28;20050;-51
2021/01/10 07:08:36;;;;;;;3.97;2.55;;;7.40;79.40;;;;;;5115179;28;20039;-48
2021/01/10 07:11:20;;;;;;;2.50;2.05;;;7.40;79.40;;;;;;5114214;28;20039;-51
2021/01/10 07:14:12;;;;;;;3.65;2.40;;;7.40;79.30;;;;;;5115653;28;20068;-51
2021/01/10 07:16:43;;;;;;;4.60;2.47;;;7.40;79.30;;;;;;5052247;28;20612;-50
2021/01/10 07:19:11;;;;;;;2.40;2.17;;;7.40;79.30;;;;;;5036070;28;20072;-49
2021/01/10 07:21:39;;;;;;;2.63;2.13;;;7.40;79.30;;;;;;5052515;28;20045;-49
2021/01/10 07:24:16;;;;;;;3.63;2.17;;;7.40;79.30;;;;;;5052179;28;20053;-49
2021/01/10 07:26:42;;;;;;;2.97;1.85;;;7.40;79.30;;;;;;5051963;28;20516;-48
2021/01/10 07:29:39;;;;;;;4.05;2.45;;;7.40;79.30;;;;;;5051298;28;20041;-46
2021/01/10 07:32:16;;;;;;;3.60;2.08;;;7.40;79.30;;;;;;5052290;28;20117;-46
2021/01/10 07:34:44;;;;;;;2.38;2.08;;;7.40;79.40;;;;;;5051599;28;20040;-47
2021/01/10 07:37:16;;;;;;;2.50;1.90;;;7.40;79.40;;;;;;5051040;28;20138;-49
2021/01/10 07:40:05;;;;;;;2.35;2.00;;;7.40;79.40;;;;;;5051760;28;20037;-44
2021/01/10 07:42:35;;;;;;;4.72;2.25;;;7.40;79.30;;;;;;5052383;28;20488;-46
2021/01/10 07:45:20;;;;;;;2.38;1.92;;;7.30;79.30;;;;;;5052585;28;20406;-46
2021/01/10 07:47:51;;;;;;;2.70;2.00;;;7.30;79.30;;;;;;5052239;28;20136;-46
2021/01/10 07:50:16;;;;;;;2.28;2.08;;;7.40;79.40;;;;;;5052273;28;20180;-47
2021/01/10 07:52:42;;;;;;;3.88;2.20;;;7.40;79.40;;;;;;5060594;28;20437;-44
2021/01/10 07:55:19;;;;;;;3.05;2.00;;;7.40;79.30;;;;;;5104173;28;20047;-47
2021/01/10 07:57:50;;;;;;;4.18;2.25;;;7.40;79.40;;;;;;5114910;28;20055;-47
2021/01/10 08:00:18;;;;;;;3.28;2.38;;;7.40;79.40;;;;;;5115075;28;20043;-47
2021/01/10 08:03:06;;;;;;;1.90;1.67;;;7.40;79.40;;;;;;5114785;28;20043;-47
2021/01/10 08:05:32;;;;;;;3.60;2.03;;;7.40;79.40;;;;;;5115014;28;20048;-48
2021/01/10 08:08:12;;;;;;;3.17;1.92;;;7.40;79.40;;;;;;5114609;28;20131;-47
2021/01/10 08:10:52;;;;;;;2.78;2.28;;;7.30;79.30;;;;;;5114244;28;20047;-46
2021/01/10 08:13:29;;;;;;;2.20;2.00;;;7.40;79.40;;;;;;5114610;28;20048;-47
2021/01/10 08:16:11;;;;;;;2.92;1.67;;;7.40;79.40;;;;;;5114629;28;20051;-47
2021/01/10 08:18:42;;;;;;;2.85;2.28;;;7.40;79.40;;;;;;5113443;28;20047;-48
2021/01/10 08:21:10;;;;;;;2.95;2.13;;;7.40;79.40;;;;;;5114259;28;20047;-47
2021/01/10 08:23:37;;;;;;;3.88;2.22;;;7.30;79.40;;;;;;5114242;28;20043;-46
2021/01/10 08:26:11;;;;;;;2.40;1.85;;;7.40;79.40;;;;;;5114121;28;20513;-46
2021/01/10 08:28:44;;;;;;;2.60;2.13;;;7.30;79.40;;;;;;5114458;28;20048;-46
2021/01/10 08:31:12;;;;;;;2.53;2.10;;;7.40;79.40;;;;;;5114110;28;20054;-46
2021/01/10 08:33:38;;;;;;;2.75;2.15;;;7.30;79.40;;;;;;5114133;28;20044;-49
2021/01/10 08:36:21;;;;;;;2.78;2.00;;;7.30;79.30;;;;;;5113993;28;20617;-48
2021/01/10 08:39:00;;;;;;;2.72;1.83;;;7.30;79.40;;;;;;5114049;28;20056;-49
2021/01/10 08:41:34;;;;;;;2.80;2.13;;;7.30;79.40;;;;;;5113989;28;20380;-50
2021/01/10 08:44:11;;;;;;;3.35;2.03;;;7.40;79.40;;;;;;5114192;28;20047;-51
2021/01/10 08:46:39;;;;;;;2.28;2.00;;;7.30;79.40;;;;;;5113927;28;20047;-48
2021/01/10 08:49:05;;;;;;;2.53;2.08;;;7.30;79.40;;;;;;5113932;28;20053;-51
2021/01/10 08:51:42;;;;;;;2.40;1.75;;;7.30;79.40;;;;;;5114054;28;20044;-50
2021/01/10 08:54:15;;;;;;;2.30;1.90;;;7.40;79.40;;;;;;5114230;28;20050;-50
2021/01/10 08:56:42;;;;;;;2.20;1.95;;;7.30;79.40;;;;;;5113396;28;20485;-48
2021/01/10 08:59:09;;;;;;;2.75;2.13;;;7.40;79.40;;;;;;5113677;28;20059;-48
2021/01/10 09:01:36;;;;;;;2.38;2.17;;;7.30;79.40;;;;;;5113839;28;20056;-51
2021/01/10 09:04:10;;;;;;;2.40;1.85;;;7.30;79.40;;;;;;5113793;28;20044;-52
2021/01/10 09:06:57;;;;;;;2.63;1.80;;;7.40;79.40;;;;;;5113568;28;20051;-47
2021/01/10 09:09:32;;;;;;;2.55;1.85;;;7.40;79.40;;;;;;5112695;28;20411;-49
2021/01/10 09:12:03;;;;;;;3.20;2.13;;;7.30;79.40;;;;;;5113500;28;20193;-51
2021/01/10 09:14:38;;;;;;;2.63;2.30;;;7.30;79.40;;;;;;5113495;28;20411;-47
2021/01/10 09:17:04;;;;;;;2.20;1.90;;;7.30;79.40;;;;;;5113572;28;20047;-46
2021/01/10 09:19:34;;;;;;;2.83;1.98;;;7.40;79.40;;;;;;5113584;28;20050;-47
2021/01/10 09:22:01;;;;;;;2.58;2.03;;;7.40;79.50;;;;;;5113531;28;20060;-47
2021/01/10 09:24:32;;;;;;;3.60;1.98;;;7.40;79.40;;;;;;5113612;28;20075;-50
2021/01/10 09:27:15;;;;;;;2.78;1.80;;;7.30;79.40;;;;;;5113263;28;20051;-49
2021/01/10 09:29:42;;;;;;;2.58;2.10;;;7.40;79.40;;;;;;5111746;28;20121;-47
2021/01/10 09:32:19;;;;;;;2.70;2.03;;;7.40;79.40;;;;;;5113445;28;20118;-49
2021/01/10 09:34:44;;;;;;;3.05;2.00;;;7.30;79.40;;;;;;5112655;28;20096;-50
2021/01/10 09:37:10;;;;;;;2.38;1.90;;;7.30;79.40;;;;;;5109334;28;20052;-47
2021/01/10 09:39:42;;;;;;;3.20;1.90;;;7.40;79.40;;;;;;5109835;28;20055;-43
2021/01/10 09:42:08;;;;;;;3.45;2.15;;;7.30;79.40;;;;;;5111933;28;20047;-44
2021/01/10 09:44:34;;;;;;;2.55;2.00;;;7.40;79.50;;;;;;5107194;28;20050;-51
2021/01/10 09:47:00;;;;;;;3.00;2.03;;;7.40;79.50;;;;;;5110683;28;20043;-46
2021/01/10 09:49:31;;;;;;;2.20;2.00;;;7.40;79.50;;;;;;5099810;28;20044;-45
2021/01/10 09:52:10;;;;;;;2.33;1.90;;;7.40;79.50;;;;;;5109651;28;20048;-45
2021/01/10 09:54:36;;;;;;;2.53;2.28;;;7.40;79.50;;;;;;5106703;28;20423;-50
2021/01/10 09:57:09;;;;;;;3.33;2.25;;;7.40;79.50;;;;;;5101408;28;20105;-46
2021/01/10 09:59:53;;;;;;;2.53;1.67;;;7.40;79.50;;;;;;5091535;28;20052;-48
2021/01/10 10:02:36;;;;;;;2.28;1.98;;;7.40;79.50;;;;;;5107304;28;20064;-48
2021/01/10 10:05:13;;;;;;;2.08;1.88;;;7.40;79.50;;;;;;5107717;28;20075;-47
2021/01/10 10:07:44;;;;;;;3.65;2.35;;;7.40;79.50;;;;;;5106636;28;20767;-47
2021/01/10 10:10:24;;;;;;;3.50;2.22;;;7.40;79.50;;;;;;5107550;28;20076;-46
2021/01/10 10:12:52;;;;;;;3.00;2.30;;;7.40;79.50;;;;;;5105118;28;20052;-48
2021/01/10 10:15:18;;;;;;;3.13;2.05;;;7.40;79.50;;;;;;5107457;28;20415;-48
2021/01/10 10:17:44;;;;;;;3.45;2.20;;;7.40;79.50;;;;;;5106812;28;20051;-48
2021/01/10 10:20:11;;;;;;;2.85;2.00;;;7.40;79.50;;;;;;5107321;28;20044;-44
2021/01/10 10:22:38;;;;;;;3.17;2.20;;;7.40;79.50;;;;;;5106630;28;20572;-46
2021/01/10 10:25:07;;;;;;;3.28;2.00;;;7.40;79.50;;;;;;5107452;28;20056;-46
2021/01/10 10:27:33;;;;;;;2.20;2.00;;;7.40;79.50;;;;;;5107179;28;20047;-44
2021/01/10 10:30:00;;;;;;;2.08;1.77;;;7.40;79.50;;;;;;5107055;28;20059;-47
2021/01/10 10:32:26;;;;;;;2.60;2.05;;;7.40;79.50;;;;;;5090320;28;20066;-44
2021/01/10 10:34:54;;;;;;;2.10;1.90;;;7.40;79.50;;;;;;5087045;28;20051;-50
2021/01/10 10:37:20;;;;;;;3.13;1.88;;;7.40;79.50;;;;;;5087170;28;20056;-44
2021/01/10 10:39:46;;;;;;;3.45;2.10;;;7.40;79.50;;;;;;5106391;28;20594;-43
2021/01/10 10:42:14;;;;;;;2.78;2.17;;;7.40;79.50;;;;;;5107063;28;20564;-44
2021/01/10 10:44:40;;;;;;;2.38;2.15;;;7.40;79.50;;;;;;5106595;28;20047;-47
2021/01/10 10:47:11;;;;;;;2.28;2.00;;;7.40;79.50;;;;;;5112852;28;20047;-43
2021/01/10 10:49:36;;;;;;;2.95;2.05;;;7.40;79.50;;;;;;5107003;28;20100;-47
2021/01/10 10:52:06;;;;;;;2.50;2.10;;;7.40;79.50;;;;;;5114203;28;20126;-47
2021/01/10 10:54:32;;;;;;;3.22;2.30;;;7.40;79.50;;;;;;5113711;28;20048;-49
2021/01/10 10:56:58;;;;;;;2.58;2.10;;;7.40;79.50;;;;;;5113964;28;20052;-48
2021/01/10 10:59:24;;;;;;;2.20;1.90;;;7.40;79.50;;;;;;5113661;27;20537;-47
2021/01/10 11:01:50;;;;;;;1.95;1.83;;;7.40;79.50;;;;;;5113404;28;20486;-46
2021/01/10 11:04:16;;;;;;;2.88;2.00;;;7.40;79.50;;;;;;5115203;28;20058;-52
2021/01/10 11:06:41;;;;;;;2.42;1.98;;;7.40;79.50;;;;;;5115424;28;20043;-47
2021/01/10 11:09:09;;;;;;;2.83;2.10;;;7.40;79.50;;;;;;5114603;28;20135;-47
2021/01/10 11:11:45;;;;;;;2.40;2.20;;;7.40;79.50;;;;;;5115000;28;20044;-47
2021/01/10 11:14:13;;;;;;;2.42;1.98;;;7.40;79.50;;;;;;5114691;28;20126;-50
2021/01/10 11:16:43;;;;;;;2.67;1.90;;;7.40;79.40;;;;;;5115351;28;20159;-46
2021/01/10 11:19:10;;;;;;;2.30;1.90;;;7.40;79.50;;;;;;5114893;28;20048;-45
2021/01/10 11:21:41;;;;;;;2.35;2.10;;;7.40;79.50;;;;;;5115032;28;20093;-47
2021/01/10 11:24:08;;;;;;;2.80;2.00;;;7.40;79.50;;;;;;5114868;28;20047;-47
2021/01/10 11:26:35;;;;;;;4.47;2.10;;;7.40;79.50;;;;;;5115173;28;20100;-48
2021/01/10 11:29:01;;;;;;;2.78;2.20;;;7.40;79.50;;;;;;5114911;28;20075;-48
2021/01/10 11:31:27;;;;;;;3.00;2.13;;;7.40;79.40;;;;;;5114387;28;20093;-47
2021/01/10 11:33:53;;;;;;;3.50;2.20;;;7.40;79.40;;;;;;5114951;28;20400;-46
2021/01/10 11:36:19;;;;;;;4.00;2.17;;;7.40;79.40;;;;;;5114673;28;20139;-46
2021/01/10 11:38:50;;;;;;;2.78;2.05;;;7.40;79.40;;;;;;5114270;28;20054;-44
2021/01/10 11:41:16;;;;;;;3.28;2.20;;;7.40;79.40;;;;;;5114615;28;20048;-50
2021/01/10 11:43:42;;;;;;;2.55;1.60;;;7.40;80.10;;;;;;5114519;28;20052;-48
2021/01/10 11:46:09;;;;;;;3.85;2.60;;;7.40;79.40;;;;;;5114201;28;20048;-46
2021/01/10 11:48:35;;;;;;;3.03;2.28;;;7.40;79.40;;;;;;5114727;28;20411;-45
2021/01/10 11:51:03;;;;;;;2.00;1.70;;;7.40;79.40;;;;;;5114666;28;20073;-46
2021/01/10 11:53:29;;;;;;;2.05;1.85;;;7.40;79.50;;;;;;5113988;28;20039;-46
2021/01/10 11:55:54;;;;;;;4.35;2.10;;;7.40;79.40;;;;;;5113894;28;20119;-46
2021/01/10 11:58:20;;;;;;;2.63;1.98;;;7.40;79.40;;;;;;5114181;28;20051;-45
2021/01/10 12:00:53;;;;;;;3.20;2.17;;;7.40;79.40;;;;;;5114231;28;20267;-44
2021/01/10 12:03:21;;;;;;;2.25;1.90;;;7.40;79.40;;;;;;5114091;28;20384;-47
2021/01/10 12:05:47;;;;;;;2.33;1.80;;;7.40;79.40;;;;;;5114108;28;20048;-47
2021/01/10 12:08:13;;;;;;;2.50;2.20;;;7.40;79.40;;;;;;5113910;28;20059;-45
2021/01/10 12:10:38;;;;;;;3.25;2.40;;;7.50;79.50;;;;;;5114211;28;20511;-43
2021/01/10 12:13:05;;;;;;;3.70;2.28;;;7.40;79.40;;;;;;5113358;28;20101;-44
2021/01/10 12:15:34;;;;;;;2.78;2.13;;;7.40;79.50;;;;;;5113233;28;20052;-46
2021/01/10 12:18:04;;;;;;;2.53;2.22;;;7.40;79.50;;;;;;5113072;28;20138;-45
2021/01/10 12:20:32;;;;;;;2.10;1.90;;;7.40;79.40;;;;;;5113309;28;20040;-46
2021/01/10 12:22:58;;;;;;;2.65;1.98;;;7.50;79.50;;;;;;5113611;28;20039;-47
2021/01/10 12:25:24;;;;;;;2.95;2.55;;;7.40;79.40;;;;;;5113618;28;20130;-47
2021/01/10 12:27:51;;;;;;;2.55;2.00;;;7.40;79.40;;;;;;5113893;28;20075;-51
2021/01/10 12:30:17;;;;;;;3.53;2.10;;;7.50;79.50;;;;;;5113686;28;20051;-45
2021/01/10 12:32:43;;;;;;;3.45;2.40;;;7.40;79.40;;;;;;5111806;28;20412;-50
2021/01/10 12:35:12;;;;;;;2.40;1.83;;;7.40;79.40;;;;;;5113235;28;20103;-48
2021/01/10 12:37:38;;;;;;;2.78;2.40;;;7.50;79.50;;;;;;5114462;28;20059;-48
2021/01/10 12:40:05;;;;;;;4.03;2.40;;;7.40;79.40;;;;;;5109037;28;20059;-48
2021/01/10 12:42:32;;;;;;;2.22;1.88;;;7.50;79.50;;;;;;5104113;28;20381;-50
2021/01/10 12:44:57;;;;;;;3.42;2.17;;;7.50;79.50;;;;;;5103547;28;20051;-45
2021/01/10 12:47:23;;;;;;;2.92;2.30;;;7.50;79.50;;;;;;5112692;28;20043;-45
2021/01/10 12:49:49;;;;;;;3.90;3.08;;;7.50;79.40;;;;;;5114045;28;20100;-44
2021/01/10 12:52:14;;;;;;;3.22;2.30;;;7.50;79.50;;;;;;5114053;28;20048;-47
2021/01/10 12:54:40;;;;;;;2.50;2.08;;;7.50;79.50;;;;;;5113233;28;20051;-47
2021/01/10 12:57:06;;;;;;;2.40;2.20;;;7.50;79.40;;;;;;5114146;28;20055;-43
2021/01/10 12:59:32;;;;;;;2.20;2.00;;;7.50;79.50;;;;;;5113885;28;20126;-44
2021/01/10 13:01:57;;;;;;;4.00;2.50;;;7.50;79.50;;;;;;5113313;28;20118;-44
2021/01/10 13:04:24;;;;;;;2.53;2.20;;;7.50;79.40;;;;;;5113408;28;20058;-44
2021/01/10 13:06:49;;;;;;;2.83;2.30;;;7.50;79.50;;;;;;5113599;28;20480;-44
2021/01/10 13:09:15;;;;;;;2.72;2.40;;;7.50;79.50;;;;;;5113224;28;20475;-45